createdAt,value
2019-05-16T00:02:08.330Z,1.43
2019-05-16T00:04:38.002Z,1.23
2019-05-16T00:07:08.084Z,1.10
2019-05-16T00:09:38.161Z,1.40
2019-05-16T00:12:08.725Z,1.37
2019-05-16T00:14:38.604Z,1.33
2019-05-16T00:17:08.415Z,1.10
2019-05-16T00:19:38.231Z,1.33
2019-05-16T00:22:08.722Z,1.20
2019-05-16T00:24:38.211Z,1.30
2019-05-16T00:27:08.317Z,1.00
2019-05-16T00:29:38.332Z,0.97
2019-05-16T00:32:08.575Z,1.17
2019-05-16T00:34:38.493Z,1.37
2019-05-16T00:37:08.656Z,0.90
2019-05-16T00:39:38.829Z,1.30
2019-05-16T00:42:08.794Z,1.63
2019-05-16T00:44:38.689Z,1.33
2019-05-16T00:47:08.698Z,1.40
2019-05-16T00:49:38.572Z,1.00
2019-05-16T00:52:07.881Z,1.70
2019-05-16T00:54:38.396Z,1.20
2019-05-16T00:57:08.544Z,1.30
2019-05-16T00:59:39.691Z,1.50
2019-05-16T01:02:09.084Z,1.83
2019-05-16T01:04:38.339Z,1.60
2019-05-16T01:07:08.195Z,1.20
2019-05-16T01:09:38.580Z,1.50
2019-05-16T01:12:08.502Z,1.20
2019-05-16T01:14:38.440Z,2.73
2019-05-16T01:17:08.596Z,1.30
2019-05-16T01:19:38.106Z,1.30
2019-05-16T01:22:08.329Z,1.30
2019-05-16T01:24:41.148Z,1.10
2019-05-16T01:27:08.427Z,1.33
2019-05-16T01:29:38.530Z,1.77
2019-05-16T01:32:08.419Z,2.00
2019-05-16T01:34:37.917Z,1.13
2019-05-16T01:37:08.261Z,1.50
2019-05-16T01:39:38.207Z,1.60
2019-05-16T01:42:08.040Z,3.40
2019-05-16T01:44:38.164Z,1.50
2019-05-16T01:47:09.002Z,1.57
2019-05-16T01:49:38.300Z,1.63
2019-05-16T01:52:08.482Z,1.70
2019-05-16T01:54:38.867Z,1.60
2019-05-16T01:57:08.263Z,1.80
2019-05-16T01:59:37.986Z,2.00
2019-05-16T02:02:08.344Z,1.70
2019-05-16T02:04:38.064Z,1.67
2019-05-16T02:07:08.589Z,2.40
2019-05-16T02:09:38.439Z,2.77
2019-05-16T02:12:10.587Z,1.90
2019-05-16T02:14:38.875Z,3.13
2019-05-16T02:17:08.682Z,1.80
2019-05-16T02:19:38.906Z,1.57
2019-05-16T02:22:08.908Z,1.50
2019-05-16T02:24:38.844Z,1.80
2019-05-16T02:27:09.549Z,1.90
2019-05-16T02:29:40.161Z,2.70
2019-05-16T02:32:11.490Z,1.90
2019-05-16T02:34:41.707Z,2.40
2019-05-16T02:37:23.756Z,3.20
2019-05-16T02:39:42.070Z,3.20
2019-05-16T02:42:12.136Z,2.70
2019-05-16T02:44:41.557Z,4.17
2019-05-16T02:47:11.104Z,3.00
2019-05-16T02:49:41.982Z,2.63
2019-05-16T02:52:11.230Z,2.57
2019-05-16T02:54:41.391Z,2.50
2019-05-16T02:57:11.376Z,2.70
2019-05-16T02:59:41.609Z,2.40
2019-05-16T03:02:11.594Z,1.80
2019-05-16T03:04:44.074Z,2.83
2019-05-16T03:07:31.577Z,1.77
2019-05-16T03:09:45.039Z,2.50
2019-05-16T03:12:14.475Z,2.10
2019-05-16T03:14:45.068Z,1.73
2019-05-16T03:17:21.197Z,1.63
2019-05-16T03:19:51.036Z,1.67
2019-05-16T03:22:22.245Z,2.03
2019-05-16T03:24:51.589Z,1.90
2019-05-16T03:27:21.553Z,1.67
2019-05-16T03:29:52.226Z,2.00
2019-05-16T03:32:24.184Z,1.67
2019-05-16T03:34:54.849Z,1.80
2019-05-16T03:37:24.988Z,1.60
2019-05-16T03:39:53.923Z,1.53
2019-05-16T03:42:23.085Z,2.03
2019-05-16T03:44:52.224Z,1.80
2019-05-16T03:47:21.899Z,1.50
2019-05-16T03:49:51.907Z,1.80
2019-05-16T03:52:21.023Z,1.80
2019-05-16T03:54:50.680Z,1.90
2019-05-16T03:57:21.245Z,1.90
2019-05-16T03:59:51.804Z,4.37
2019-05-16T04:02:21.637Z,3.73
2019-05-16T04:04:51.244Z,4.10
2019-05-16T04:07:21.380Z,4.23
2019-05-16T04:09:50.868Z,3.87
2019-05-16T04:12:21.439Z,4.80
2019-05-16T04:14:51.381Z,5.03
2019-05-16T04:17:21.134Z,4.40
2019-05-16T04:19:50.992Z,3.70
2019-05-16T04:22:21.552Z,4.93
2019-05-16T04:24:51.370Z,3.53
2019-05-16T04:27:21.485Z,3.40
2019-05-16T04:29:51.515Z,3.30
2019-05-16T04:32:21.218Z,2.63
2019-05-16T04:34:51.124Z,2.70
2019-05-16T04:37:24.099Z,3.00
2019-05-16T04:39:51.689Z,3.33
2019-05-16T04:42:21.444Z,2.77
2019-05-16T04:44:51.554Z,2.97
2019-05-16T04:47:21.173Z,2.73
2019-05-16T04:49:51.889Z,2.83
2019-05-16T04:52:21.881Z,2.60
2019-05-16T04:54:51.384Z,2.80
2019-05-16T04:57:21.026Z,2.87
2019-05-16T04:59:50.945Z,3.47
2019-05-16T05:02:21.369Z,3.10
2019-05-16T05:04:51.022Z,3.73
2019-05-16T05:07:20.832Z,3.10
2019-05-16T05:09:51.326Z,3.13
2019-05-16T05:12:22.002Z,3.43
2019-05-16T05:14:51.283Z,3.90
2019-05-16T05:17:21.092Z,2.97
2019-05-16T05:19:50.787Z,2.77
2019-05-16T05:22:20.036Z,2.57
2019-05-16T05:24:50.748Z,2.73
2019-05-16T05:27:19.999Z,2.90
2019-05-16T05:29:50.254Z,2.47
2019-05-16T05:32:20.005Z,2.63
2019-05-16T05:34:50.303Z,4.50
2019-05-16T05:37:20.384Z,2.50
2019-05-16T05:39:50.389Z,3.67
2019-05-16T05:42:20.040Z,4.13
2019-05-16T05:44:50.828Z,4.27
2019-05-16T05:47:20.203Z,3.53
2019-05-16T05:49:49.834Z,7.27
2019-05-16T05:52:20.764Z,3.33
2019-05-16T05:54:50.340Z,3.80
2019-05-16T05:57:20.898Z,3.27
2019-05-16T05:59:50.153Z,3.00
2019-05-16T06:02:20.135Z,4.43
2019-05-16T06:04:50.279Z,2.90
2019-05-16T06:07:20.580Z,3.00
2019-05-16T06:09:55.574Z,3.23
2019-05-16T06:12:21.368Z,4.50
2019-05-16T06:14:50.675Z,5.40
2019-05-16T06:17:20.220Z,3.40
2019-05-16T06:19:49.884Z,3.80
2019-05-16T06:22:20.561Z,3.70
2019-05-16T06:24:50.470Z,4.30
2019-05-16T06:27:20.896Z,4.23
2019-05-16T06:29:50.207Z,3.87
2019-05-16T06:32:19.846Z,3.50
2019-05-16T06:34:50.718Z,3.00
2019-05-16T06:37:20.603Z,3.00
2019-05-16T06:39:50.359Z,3.53
2019-05-16T06:42:20.650Z,2.90
2019-05-16T06:44:50.355Z,2.50
2019-05-16T06:47:22.899Z,2.50
2019-05-16T06:49:51.022Z,2.17
2019-05-16T06:52:20.214Z,3.23
2019-05-16T06:54:50.418Z,2.20
2019-05-16T06:57:20.721Z,1.90
2019-05-16T06:59:50.112Z,2.30
2019-05-16T07:02:27.644Z,2.17
2019-05-16T07:04:50.721Z,2.10
2019-05-16T07:07:20.486Z,3.87
2019-05-16T07:10:00.009Z,2.63
2019-05-16T07:12:20.511Z,2.17
2019-05-16T07:14:50.550Z,1.90
2019-05-16T07:17:20.339Z,2.30
2019-05-16T07:19:50.246Z,1.80
2019-05-16T07:22:20.496Z,2.33
2019-05-16T07:24:50.454Z,2.10
2019-05-16T07:27:21.888Z,2.97
2019-05-16T07:29:50.876Z,1.70
2019-05-16T07:32:20.180Z,3.07
2019-05-16T07:34:49.839Z,3.63
2019-05-16T07:37:20.073Z,2.17
2019-05-16T07:39:51.100Z,2.83
2019-05-16T07:42:20.312Z,1.60
2019-05-16T07:44:50.563Z,2.77
2019-05-16T07:47:20.271Z,2.10
2019-05-16T07:49:50.123Z,2.00
2019-05-16T07:52:20.924Z,1.87
2019-05-16T07:54:50.880Z,2.27
2019-05-16T07:57:22.784Z,1.50
2019-05-16T07:59:50.974Z,3.07
2019-05-16T08:02:20.827Z,1.60
2019-05-16T08:04:50.405Z,1.80
2019-05-16T08:07:20.218Z,1.60
2019-05-16T08:09:50.536Z,1.83
2019-05-16T08:12:25.898Z,1.70
2019-05-16T08:14:50.830Z,2.03
2019-05-16T08:17:21.754Z,1.73
2019-05-16T08:19:51.129Z,1.57
2019-05-16T08:24:51.176Z,1.87
2019-05-16T08:27:20.968Z,1.80
2019-05-16T08:29:51.303Z,2.63
2019-05-16T08:32:23.028Z,3.37
2019-05-16T08:34:51.694Z,1.40
2019-05-16T08:37:36.898Z,1.60
2019-05-16T08:39:51.721Z,2.15
2019-05-16T08:42:21.091Z,1.62
2019-05-16T08:44:51.743Z,1.95
2019-05-16T08:47:21.435Z,2.15
2019-05-16T08:49:52.234Z,2.35
2019-05-16T08:54:52.423Z,1.10
2019-05-16T08:59:53.166Z,1.52
2019-05-16T09:02:31.518Z,1.57
2019-05-16T09:04:53.755Z,1.45
2019-05-16T09:07:23.033Z,1.72
2019-05-16T09:09:52.431Z,1.50
2019-05-16T09:10:26.225Z,1.40
2019-05-16T09:10:30.561Z,1.80
2019-05-16T09:10:35.524Z,1.60
2019-05-16T09:12:21.560Z,1.47
2019-05-16T09:14:50.568Z,1.52
2019-05-16T09:17:19.709Z,1.67
2019-05-16T09:19:48.798Z,1.50
2019-05-16T09:22:18.150Z,1.57
2019-05-16T09:24:48.264Z,1.57
2019-05-16T09:27:18.033Z,1.12
2019-05-16T09:29:47.390Z,1.72
2019-05-16T09:32:20.405Z,1.70
2019-05-16T09:34:48.017Z,1.62
2019-05-16T09:37:18.095Z,1.57
2019-05-16T09:39:48.201Z,2.90
2019-05-16T09:42:17.485Z,1.50
2019-05-16T09:44:47.625Z,1.12
2019-05-16T09:47:17.725Z,1.17
2019-05-16T09:49:47.655Z,1.50
2019-05-16T09:52:16.962Z,1.90
2019-05-16T09:54:46.874Z,2.47
2019-05-16T09:57:17.528Z,1.70
2019-05-16T09:59:46.838Z,1.37
2019-05-16T10:02:17.636Z,1.80
2019-05-16T10:04:47.497Z,1.32
2019-05-16T10:07:17.969Z,1.42
2019-05-16T10:09:50.238Z,3.15
2019-05-16T10:12:18.782Z,1.62
2019-05-16T10:14:48.008Z,1.10
2019-05-16T10:17:17.804Z,1.10
2019-05-16T10:19:47.507Z,1.30
2019-05-16T10:22:17.259Z,1.30
2019-05-16T10:24:46.963Z,1.52
2019-05-16T10:27:17.165Z,1.70
2019-05-16T10:29:48.447Z,2.05
2019-05-16T10:32:17.294Z,1.27
2019-05-16T10:34:46.853Z,1.25
2019-05-16T10:37:17.646Z,1.62
2019-05-16T10:39:47.109Z,2.50
2019-05-16T10:42:28.308Z,0.80
2019-05-16T10:44:48.362Z,3.15
2019-05-16T10:47:17.999Z,1.70
2019-05-16T10:49:47.735Z,1.22
2019-05-16T10:52:17.051Z,1.20
2019-05-16T10:54:55.263Z,1.62
2019-05-16T10:57:17.024Z,1.07
2019-05-16T11:00:04.157Z,1.00
2019-05-16T11:02:17.132Z,1.12
2019-05-16T11:04:59.303Z,1.90
2019-05-16T11:07:17.178Z,0.80
2019-05-16T11:09:55.712Z,1.07
2019-05-16T11:12:20.320Z,1.00
2019-05-16T11:14:47.965Z,2.25
2019-05-16T11:17:19.035Z,1.02
2019-05-16T11:19:47.899Z,1.60
2019-05-16T11:22:17.044Z,0.88
2019-05-16T11:24:47.161Z,1.12
2019-05-16T11:27:16.491Z,0.98
2019-05-16T11:29:47.267Z,1.05
2019-05-16T11:32:16.558Z,0.78
2019-05-16T11:34:47.791Z,1.07
2019-05-16T11:37:17.654Z,1.00
2019-05-16T11:39:47.059Z,0.93
2019-05-16T11:42:17.545Z,0.80
2019-05-16T11:44:47.854Z,2.10
2019-05-16T11:47:17.154Z,1.20
2019-05-16T11:49:47.620Z,1.00
2019-05-16T11:52:18.074Z,0.80
2019-05-16T11:54:47.419Z,0.80
2019-05-16T11:57:17.900Z,1.10
2019-05-16T11:59:47.211Z,1.42
2019-05-16T12:02:17.575Z,1.62
2019-05-16T12:04:47.321Z,0.82
2019-05-16T12:07:19.046Z,1.40
2019-05-16T12:09:54.581Z,1.27
2019-05-16T12:12:20.740Z,0.85
2019-05-16T12:14:49.074Z,2.10
2019-05-16T12:17:18.150Z,1.25
2019-05-16T12:19:49.049Z,0.85
2019-05-16T12:22:18.428Z,1.00
2019-05-16T12:24:47.863Z,1.07
2019-05-16T12:27:17.323Z,1.37
2019-05-16T12:29:50.121Z,0.70
2019-05-16T12:32:17.480Z,1.35
2019-05-16T12:34:46.556Z,0.88
2019-05-16T12:37:15.645Z,0.85
2019-05-16T12:39:46.955Z,1.90
2019-05-16T12:42:15.570Z,0.80
2019-05-16T12:44:46.735Z,1.10
2019-05-16T12:47:15.470Z,0.68
2019-05-16T12:49:47.081Z,0.88
2019-05-16T12:52:15.437Z,1.15
2019-05-16T12:54:47.355Z,0.80
2019-05-16T12:57:18.124Z,1.12
2019-05-16T12:59:50.008Z,1.00
2019-05-16T13:02:17.133Z,0.70
2019-05-16T13:04:47.101Z,0.60
2019-05-16T13:07:17.367Z,0.70
2019-05-16T13:09:49.943Z,1.00
2019-05-16T13:12:17.595Z,1.22
2019-05-16T13:14:46.822Z,0.60
2019-05-16T13:17:16.664Z,1.27
2019-05-16T13:19:48.296Z,1.02
2019-05-16T13:22:16.780Z,1.37
2019-05-16T13:24:47.961Z,1.05
2019-05-16T13:27:22.645Z,1.00
2019-05-16T13:29:47.806Z,0.90
2019-05-16T13:32:17.323Z,0.82
2019-05-16T13:34:46.549Z,0.80
2019-05-16T13:37:17.928Z,0.65
2019-05-16T13:39:47.606Z,1.27
2019-05-16T13:42:16.960Z,0.80
2019-05-16T13:44:47.176Z,1.72
2019-05-16T13:47:17.355Z,0.80
2019-05-16T13:49:46.773Z,0.80
2019-05-16T13:52:16.675Z,1.00
2019-05-16T13:54:45.945Z,0.62
2019-05-16T13:57:17.126Z,0.90
2019-05-16T13:59:45.870Z,0.90
2019-05-16T14:02:17.259Z,1.92
2019-05-16T14:04:45.766Z,0.98
2019-05-16T14:07:17.252Z,1.20
2019-05-16T14:09:47.139Z,2.40
2019-05-16T14:12:17.662Z,1.40
2019-05-16T14:14:47.841Z,1.05
2019-05-16T14:17:17.934Z,1.22
2019-05-16T14:19:48.086Z,1.00
2019-05-16T14:22:17.637Z,1.05
2019-05-16T14:24:48.116Z,0.90
2019-05-16T14:27:17.575Z,0.85
2019-05-16T14:29:47.710Z,0.75
2019-05-16T14:32:19.472Z,0.90
2019-05-16T14:34:51.331Z,1.12
2019-05-16T14:37:18.927Z,0.90
2019-05-16T14:39:48.881Z,0.70
2019-05-16T14:42:18.555Z,0.75
2019-05-16T14:45:03.849Z,1.60
2019-05-16T14:47:18.456Z,1.87
2019-05-16T14:49:48.808Z,1.07
2019-05-16T14:52:18.286Z,1.32
2019-05-16T14:54:47.390Z,0.90
2019-05-16T14:57:16.772Z,0.80
2019-05-16T14:59:47.151Z,1.07
2019-05-16T15:02:18.153Z,2.25
2019-05-16T15:04:49.639Z,0.82
2019-05-16T15:07:19.526Z,0.75
2019-05-16T15:09:48.937Z,1.32
2019-05-16T15:12:18.086Z,1.05
2019-05-16T15:14:47.195Z,1.25
2019-05-16T15:17:16.842Z,1.00
2019-05-16T15:19:46.619Z,1.15
2019-05-16T15:22:16.798Z,1.25
2019-05-16T15:24:46.125Z,1.05
2019-05-16T15:27:16.978Z,2.12
2019-05-16T15:29:48.144Z,1.45
2019-05-16T15:32:18.560Z,1.12
2019-05-16T15:34:47.970Z,1.05
2019-05-16T15:37:17.365Z,1.02
2019-05-16T15:39:47.546Z,1.07
2019-05-16T15:42:18.038Z,1.10
2019-05-16T15:44:47.461Z,1.45
2019-05-16T15:47:17.622Z,1.37
2019-05-16T15:49:47.711Z,2.35
2019-05-16T15:52:17.359Z,1.60
2019-05-16T15:54:48.028Z,1.10
2019-05-16T15:57:17.592Z,1.17
2019-05-16T15:59:47.063Z,1.40
2019-05-16T16:02:17.674Z,1.30
2019-05-16T16:04:47.736Z,1.25
2019-05-16T16:07:18.111Z,1.62
2019-05-16T16:09:47.676Z,1.07
2019-05-16T16:12:17.076Z,1.07
2019-05-16T16:14:46.863Z,1.10
2019-05-16T16:17:17.714Z,1.35
2019-05-16T16:19:47.115Z,1.30
2019-05-16T16:22:17.723Z,1.20
2019-05-16T16:24:48.571Z,1.60
2019-05-16T16:27:17.767Z,1.27
2019-05-16T16:29:48.051Z,1.40
2019-05-16T16:32:17.541Z,1.37
2019-05-16T16:34:49.034Z,1.60
2019-05-16T16:37:17.459Z,1.67
2019-05-16T16:39:47.154Z,1.00
2019-05-16T16:42:16.523Z,1.80
2019-05-16T16:44:47.211Z,1.25
2019-05-16T16:47:17.600Z,2.15
2019-05-16T16:49:47.002Z,1.37
2019-05-16T16:52:16.783Z,1.70
2019-05-16T16:54:47.594Z,1.98
2019-05-16T16:57:17.728Z,3.27
2019-05-16T16:59:47.674Z,1.50
2019-05-16T17:02:17.226Z,1.50
2019-05-16T17:04:51.022Z,1.47
2019-05-16T17:07:17.309Z,1.47
2019-05-16T17:09:47.140Z,2.15
2019-05-16T17:12:16.454Z,1.70
2019-05-16T17:14:46.486Z,1.72
2019-05-16T17:17:17.650Z,1.37
2019-05-16T17:19:47.364Z,1.57
2019-05-16T17:22:20.506Z,1.50
2019-05-16T17:24:47.512Z,1.87
2019-05-16T17:27:16.654Z,1.90
2019-05-16T17:29:47.411Z,1.57
2019-05-16T17:32:16.900Z,2.08
2019-05-16T17:34:45.983Z,1.77
2019-05-16T17:37:17.115Z,1.70
2019-05-16T17:39:47.459Z,1.60
2019-05-16T17:42:16.760Z,3.20
2019-05-16T17:44:47.268Z,1.90
2019-05-16T17:47:17.331Z,1.57
2019-05-16T17:49:46.641Z,1.27
2019-05-16T17:52:16.537Z,1.60
2019-05-16T17:54:46.174Z,2.12
2019-05-16T17:57:17.029Z,1.57
2019-05-16T17:59:47.949Z,1.50
2019-05-16T18:02:17.377Z,1.75
2019-05-16T18:04:47.115Z,1.70
2019-05-16T18:07:16.434Z,1.60
2019-05-16T18:09:45.566Z,1.65
2019-05-16T18:12:14.665Z,1.95
2019-05-16T18:14:46.741Z,1.77
2019-05-16T18:17:15.033Z,1.77
2019-05-16T18:19:46.467Z,2.10
2019-05-16T18:22:14.966Z,1.80
2019-05-16T18:24:44.077Z,1.70
2019-05-16T18:27:13.185Z,2.00
2019-05-16T18:29:42.390Z,1.70
2019-05-16T18:32:11.481Z,1.75
2019-05-16T18:34:40.614Z,2.12
2019-05-16T18:37:09.688Z,1.82
2019-05-16T18:39:38.774Z,1.70
2019-05-16T18:42:07.868Z,1.77
2019-05-16T18:44:37.015Z,1.90
2019-05-16T18:47:10.994Z,1.70
2019-05-16T18:49:36.985Z,1.90
2019-05-16T18:52:06.668Z,2.08
2019-05-16T18:54:37.655Z,1.57
2019-05-16T18:57:07.176Z,1.70
2019-05-16T18:59:36.938Z,1.90
2019-05-16T19:02:09.869Z,2.05
2019-05-16T19:04:37.914Z,1.85
2019-05-16T19:07:07.871Z,2.17
2019-05-16T19:09:37.578Z,2.22
2019-05-16T19:12:06.848Z,1.85
2019-05-16T19:14:36.930Z,3.10
2019-05-16T19:17:20.293Z,1.90
2019-05-16T19:19:40.186Z,1.67
2019-05-16T19:22:09.256Z,2.00
2019-05-16T19:24:38.412Z,1.75
2019-05-16T19:27:07.507Z,1.90
2019-05-16T19:29:36.932Z,1.72
2019-05-16T19:32:06.772Z,1.90
2019-05-16T19:34:36.081Z,2.20
2019-05-16T19:37:06.958Z,2.47
2019-05-16T19:39:37.258Z,2.08
2019-05-16T19:42:06.638Z,2.15
2019-05-16T19:44:37.105Z,2.00
2019-05-16T19:47:07.060Z,2.10
2019-05-16T19:49:37.006Z,1.80
2019-05-16T19:52:07.231Z,1.72
2019-05-16T19:54:36.667Z,2.62
2019-05-16T19:57:07.206Z,1.57
2019-05-16T19:59:36.749Z,2.00
2019-05-16T20:02:07.671Z,1.70
2019-05-16T20:04:36.967Z,2.65
2019-05-16T20:07:07.502Z,1.55
2019-05-16T20:09:36.741Z,2.27
2019-05-16T20:12:07.671Z,2.22
2019-05-16T20:14:36.780Z,1.65
2019-05-16T20:17:07.367Z,2.40
2019-05-16T20:19:36.653Z,1.87
2019-05-16T20:22:07.668Z,2.52
2019-05-16T20:24:36.791Z,2.22
2019-05-16T20:27:08.114Z,2.77
2019-05-16T20:29:37.519Z,2.45
2019-05-16T20:32:11.050Z,1.80
2019-05-16T20:34:41.067Z,2.35
2019-05-16T20:37:10.208Z,1.75
2019-05-16T20:39:39.334Z,1.95
2019-05-16T20:42:08.432Z,1.80
2019-05-16T20:44:37.569Z,2.12
2019-05-16T20:47:07.279Z,2.60
2019-05-16T20:49:37.404Z,2.30
2019-05-16T20:52:07.036Z,1.98
2019-05-16T20:54:37.668Z,2.25
2019-05-16T20:57:07.008Z,1.80
2019-05-16T20:59:36.139Z,2.08
2019-05-16T21:02:06.849Z,3.08
2019-05-16T21:04:37.414Z,2.02
2019-05-16T21:07:10.904Z,2.05
2019-05-16T21:09:37.657Z,3.55
2019-05-16T21:12:08.266Z,2.00
2019-05-16T21:14:37.647Z,3.40
2019-05-16T21:17:06.856Z,2.30
2019-05-16T21:19:36.329Z,2.30
2019-05-16T21:22:07.344Z,4.00
2019-05-16T21:24:37.359Z,2.75
2019-05-16T21:27:06.727Z,2.33
2019-05-16T21:29:36.915Z,2.42
2019-05-16T21:32:07.387Z,2.67
2019-05-16T21:34:36.847Z,1.85
2019-05-16T21:37:14.366Z,2.80
2019-05-16T21:39:37.005Z,2.02
2019-05-16T21:42:07.451Z,2.17
2019-05-16T21:44:37.543Z,2.02
2019-05-16T21:47:06.691Z,3.25
2019-05-16T21:49:37.031Z,2.08
2019-05-16T21:52:06.459Z,3.20
2019-05-16T21:54:36.675Z,2.12
2019-05-16T21:57:06.129Z,2.42
2019-05-16T21:59:37.065Z,2.37
2019-05-16T22:02:07.419Z,2.12
2019-05-16T22:04:36.813Z,2.77
2019-05-16T22:07:07.220Z,4.08
2019-05-16T22:09:37.107Z,2.87
2019-05-16T22:12:06.787Z,4.73
2019-05-16T22:14:43.108Z,3.08
2019-05-16T22:17:12.288Z,3.85
2019-05-16T22:19:41.380Z,2.47
2019-05-16T22:22:10.501Z,2.37
2019-05-16T22:24:39.668Z,3.13
2019-05-16T22:27:08.838Z,2.57
2019-05-16T22:29:37.972Z,2.30
2019-05-16T22:32:09.243Z,2.50
2019-05-16T22:34:38.043Z,2.53
2019-05-16T22:37:07.275Z,2.50
2019-05-16T22:39:37.132Z,2.30
2019-05-16T22:42:09.221Z,2.50
2019-05-16T22:44:37.354Z,2.17
2019-05-16T22:47:06.777Z,2.63
2019-05-16T22:49:36.988Z,2.50
2019-05-16T22:52:06.673Z,2.70
2019-05-16T22:54:37.113Z,2.33
2019-05-16T22:57:06.775Z,2.33
2019-05-16T22:59:36.206Z,2.93
2019-05-16T23:02:11.316Z,2.67
2019-05-16T23:04:37.922Z,2.83
2019-05-16T23:07:07.285Z,2.30
2019-05-16T23:09:36.666Z,2.70
2019-05-16T23:12:07.087Z,3.13
2019-05-16T23:14:36.362Z,2.50
2019-05-16T23:17:06.687Z,3.03
2019-05-16T23:19:36.711Z,3.17
2019-05-16T23:22:07.621Z,3.03
2019-05-16T23:24:36.968Z,3.03
2019-05-16T23:27:06.973Z,2.80
2019-05-16T23:29:36.772Z,2.67
2019-05-16T23:32:07.421Z,3.00
2019-05-16T23:34:37.308Z,3.03
2019-05-16T23:37:06.677Z,2.93
2019-05-16T23:39:37.768Z,2.97
2019-05-16T23:42:06.638Z,2.50
2019-05-16T23:44:36.672Z,2.87
2019-05-16T23:47:07.112Z,2.40
2019-05-16T23:49:36.790Z,2.30
2019-05-16T23:52:07.504Z,2.53
2019-05-16T23:54:36.927Z,2.53
2019-05-16T23:57:06.598Z,3.07
2019-05-16T23:59:36.843Z,2.47
